KMYR/MYR METAR and TAF weather

Enter ICAO airport designator
Station Type Date Time Source
KMYR METAR 2019/08/18 18:56 UTC NOAA

KMYR 181856Z 19012KT 10SM SCT034 30/26 A3005 RMK AO2 SLP175 T03000256


Station Type Date Time Source
KMYR Decoded METAR 2019/08/18 18:56 UTC NOAA

Station name not available
Aug 18, 2019 - 02:56 PM EDT / 2019.08.18 1856 UTC
Wind: from the S (190 degrees) at 14 MPH (12 KT):0
Visibility: 10 mile(s):0
Sky conditions: partly cloudy
Temperature: 86.0 F (30.0 C)
Heat index: 98.2 F (36.8 C):1
Dew Point: 78.1 F (25.6 C)
Relative Humidity: 77%
Pressure (altimeter): 30.05 in. Hg (1017 hPa)
ob: KMYR 181856Z 19012KT 10SM SCT034 30/26 A3005 RMK AO2 SLP175 T03000256
cycle: 19

Station Type Date Time Source
KMYR TAF 2019/08/18 18:22 UTC NOAA

TAF KMYR 181720Z 1818/1918 25006KT P6SM OVC022
FM181900 21007KT P6SM SCT035
FM182200 25004KT P6SM BKN250

Example: see airport list